22 de mayo de 2022

Hora Código Tiempo Temp. Visibilidad Nubes Viento METAR/SPECI
10:00
V
22 °C 9 km - 050°   050° 8 kt METAR LFMU 220800Z AUTO 05008KT 9000 FEW012 22/18 Q1013 NOSIG
09:30
M
20 °C 10 km+ 1.300 ft 040°   040° 4 kt METAR LFMU 220730Z AUTO 04004KT 010V090 9999 BKN013 20/19 Q1013 BECMG FEW009
09:00
M
20 °C 10 km+ 1.100 ft Var   Var 3 kt METAR LFMU 220700Z AUTO VRB03KT 9999 BKN011 20/18 Q1014 TEMPO 4000 BR BECMG FEW009
08:30
V
19 °C 10 km+ - Var   Var 2 kt METAR LFMU 220630Z AUTO VRB02KT CAVOK 19/18 Q1013 TEMPO 4000 BR BKN008
08:00
V
18 °C 10 km+ - Var   Var 1 kt METAR LFMU 220600Z AUTO VRB01KT CAVOK 18/17 Q1013 TEMPO 4000 BR BKN008
07:30
V
17 °C 10 km+ - 090°   090° 1 kt METAR LFMU 220530Z AUTO 09001KT CAVOK 17/16 Q1013 TEMPO 4000 BR BKN008
07:00
V
17 °C 8 km - 060°   060° 3 kt METAR LFMU 220500Z AUTO 06003KT 8000 NSC 17/16 Q1013 TEMPO 4000 BR BKN008
06:30
V
17 °C 8 km - 050°   050° 3 kt METAR LFMU 220430Z AUTO 05003KT 020V080 8000 NSC 17/16 Q1013 TEMPO 4000 BR BKN008
06:00
V
17 °C 8 km - 030°   030° 3 kt METAR LFMU 220400Z AUTO 03003KT 8000 NSC 17/16 Q1013 TEMPO 4000 BR BKN008
05:30
M
17 °C 7 km - 360°   360° 4 kt METAR LFMU 220330Z AUTO 36004KT 7000 NSC 17/16 Q1013 TEMPO 4000 BR BKN008
05:00
V
16 °C 8 km - 350°   350° 4 kt METAR LFMU 220300Z AUTO 35004KT 8000 FEW007 16/16 Q1014
04:30
V
17 °C 8 km - 360°   360° 5 kt METAR LFMU 220230Z AUTO 36005KT 8000 SCT007 17/16 Q1014
04:00
V
17 °C 9 km - 350°   350° 6 kt METAR LFMU 220200Z AUTO 35006KT 9000 FEW010 17/16 Q1014
03:30
M
17 °C 9 km 1.000 ft 360°   360° 6 kt METAR LFMU 220130Z AUTO 36006KT 9000 OVC010 17/17 Q1014
03:00
I
17 °C 10 km+ 800 ft 310°   310° 3 kt METAR LFMU 220100Z AUTO 31003KT 9999 OVC008 17/17 Q1015
02:30
V
17 °C 9 km - 280°   280° 4 kt METAR LFMU 220030Z AUTO 28004KT 9000 SCT008 17/16 Q1015
02:00
V
17 °C 10 km+ - 310°   310° 2 kt METAR LFMU 220000Z AUTO 31002KT CAVOK 17/16 Q1015
01:30
V
17 °C 10 km+ - 360°   360° 3 kt METAR LFMU 212330Z AUTO 36003KT CAVOK 17/16 Q1015
01:00
V
17 °C 10 km+ - Var   Var 2 kt METAR LFMU 212300Z AUTO VRB02KT CAVOK 17/16 Q1016
00:30
V
17 °C 10 km+ - Var   000° 0 kt METAR LFMU 212230Z AUTO 00000KT CAVOK 17/16 Q1016
00:00
V
18 °C 10 km+ - Var   Var 3 kt METAR LFMU 212200Z AUTO VRB03KT CAVOK 18/16 Q1016

21 de mayo de 2022

Hora Código Tiempo Temp. Visibilidad Nubes Viento METAR/SPECI
23:30
V
18 °C 10 km+ - 040°   040° 2 kt METAR LFMU 212130Z AUTO 04002KT CAVOK 18/16 Q1016
23:00
V
19 °C 10 km+ - 060°   060° 3 kt METAR LFMU 212100Z AUTO 06003KT CAVOK 19/17 Q1017
22:30
V
19 °C 10 km+ - 100°   100° 3 kt METAR LFMU 212030Z AUTO 10003KT CAVOK 19/17 Q1017 TEMPO 4000 BR BKN008
22:00
V
20 °C 10 km+ - 080°   080° 3 kt METAR LFMU 212000Z AUTO 08003KT CAVOK 20/17 Q1017 TEMPO 4000 BR BKN008
21:30
V
20 °C 10 km+ - Var   Var 2 kt METAR LFMU 211930Z AUTO VRB02KT CAVOK 20/18 Q1017 TEMPO 4000 BR BKN008
21:00
V
21 °C 10 km+ - Var   Var 3 kt METAR LFMU 211900Z AUTO VRB03KT CAVOK 21/18 Q1017 NOSIG
20:30
V
21 °C 10 km+ - 160°   160° 3 kt METAR LFMU 211830Z AUTO 16003KT 130V190 CAVOK 21/18 Q1017 NOSIG
20:00
V
22 °C 10 km+ - 150°   150° 4 kt METAR LFMU 211800Z AUTO 15004KT 120V180 CAVOK 22/18 Q1017 NOSIG
19:30
V
22 °C 10 km+ - 170°   170° 5 kt METAR LFMU 211730Z AUTO 17005KT 120V210 CAVOK 22/18 Q1017 NOSIG
19:00
V
23 °C 10 km+ - 170°   170° 5 kt METAR LFMU 211700Z AUTO 17005KT 130V200 CAVOK 23/18 Q1017 NOSIG
18:30
V
23 °C 10 km+ - 170°   170° 7 kt METAR LFMU 211630Z AUTO 17007KT 130V220 CAVOK 23/18 Q1017 NOSIG
18:00
V
24 °C 10 km+ - 190°   190° 7 kt METAR LFMU 211600Z AUTO 19007KT CAVOK 24/18 Q1017 NOSIG
17:30
V
24 °C 10 km+ - 190°   190° 7 kt METAR LFMU 211530Z AUTO 19007KT 140V240 CAVOK 24/18 Q1017 NOSIG
17:00
V
24 °C 10 km+ - 170°   170° 7 kt METAR LFMU 211500Z AUTO 17007KT 140V200 CAVOK 24/19 Q1018 NOSIG
16:30
V
25 °C 10 km+ - 170°   170° 6 kt METAR LFMU 211430Z AUTO 17006KT 120V200 CAVOK 25/19 Q1018 NOSIG
16:00
V
24 °C 10 km+ - 150°   150° 7 kt METAR LFMU 211400Z AUTO 15007KT 110V190 CAVOK 24/19 Q1018 NOSIG
15:30
V
25 °C 10 km+ - 180°   180° 8 kt METAR LFMU 211330Z AUTO 18008KT 150V220 CAVOK 25/18 Q1019 NOSIG
15:00
V
25 °C 10 km+ - 170°   170° 8 kt METAR LFMU 211300Z AUTO 17008KT 120V200 CAVOK 25/19 Q1019 NOSIG
14:30
V
25 °C 10 km+ - Var   Var 8 kt METAR LFMU 211230Z AUTO VRB08KT CAVOK 25/18 Q1019 NOSIG
14:00
V
25 °C 10 km+ - 170°   170° 8 kt METAR LFMU 211200Z AUTO 17008KT 120V200 CAVOK 25/18 Q1019 NOSIG
13:30
V
25 °C 10 km+ - 150°   150° 8 kt METAR LFMU 211130Z AUTO 15008KT 110V210 CAVOK 25/18 Q1020 NOSIG
13:00
V
25 °C 10 km+ - 160°   160° 8 kt METAR LFMU 211100Z AUTO 16008KT 100V200 CAVOK 25/18 Q1020 NOSIG
12:30
V
25 °C 10 km+ - 150°   150° 6 kt METAR LFMU 211030Z AUTO 15006KT 100V210 CAVOK 25/18 Q1020 NOSIG
12:00
V
25 °C 10 km+ - 120°   120° 6 kt METAR LFMU 211000Z AUTO 12006KT 080V160 CAVOK 25/16 Q1020 NOSIG
11:30
V
25 °C 10 km+ - 080°   080° 6 kt METAR LFMU 210930Z AUTO 08006KT 030V130 CAVOK 25/17 Q1021 NOSIG
11:00
V
24 °C 10 km+ - 100°   100° 9 kt METAR LFMU 210900Z AUTO 10009KT CAVOK 24/16 Q1021 NOSIG
10:30
V
24 °C 10 km+ - 100°   100° 7 kt METAR LFMU 210830Z AUTO 10007KT 050V130 CAVOK 24/16 Q1021 NOSIG
10:00
V
23 °C 10 km+ - 080°   080° 7 kt METAR LFMU 210800Z AUTO 08007KT 040V120 CAVOK 23/16 Q1021 NOSIG
09:30
V
23 °C 10 km+ - 080°   080° 6 kt METAR LFMU 210730Z AUTO 08006KT 040V110 CAVOK 23/17 Q1021 NOSIG
09:00
V
21 °C 10 km+ - 050°   050° 5 kt METAR LFMU 210700Z AUTO 05005KT 010V070 9999 SCT013 21/16 Q1021 NOSIG
08:30
M
20 °C 10 km+ 1.200 ft 020°   020° 4 kt METAR LFMU 210630Z AUTO 02004KT 9999 OVC012 20/16 Q1022 BECMG 08010KT NSC
08:00
M
18 °C 10 km+ 1.500 ft 360°   360° 4 kt METAR LFMU 210600Z AUTO 36004KT 9999 BKN015 18/15 Q1022 TEMPO BKN007
07:30
V
17 °C 10 km+ - 340°   340° 4 kt METAR LFMU 210530Z AUTO 34004KT 9999 SCT014 17/15 Q1022 TEMPO BKN007
07:00
V
16 °C 10 km+ - 350°   350° 5 kt METAR LFMU 210500Z AUTO 35005KT CAVOK 16/15 Q1022 TEMPO BKN007
06:30
V
16 °C 10 km+ - 350°   350° 5 kt METAR LFMU 210430Z AUTO 35005KT 9999 FEW013 16/14 Q1022 TEMPO BKN007
06:00
M
17 °C 10 km+ 1.300 ft 340°   340° 6 kt METAR LFMU 210400Z AUTO 34006KT 9999 BKN013 17/15 Q1022 TEMPO BKN007
05:30
V
17 °C 10 km+ - 340°   340° 6 kt METAR LFMU 210330Z AUTO 34006KT CAVOK 17/15 Q1022 TEMPO BKN007
05:00
V
17 °C 10 km+ - 340°   340° 5 kt METAR LFMU 210300Z AUTO 34005KT CAVOK 17/15 Q1022 TEMPO BKN007
04:30
V
17 °C 10 km+ - 340°   340° 4 kt METAR LFMU 210230Z AUTO 34004KT CAVOK 17/15 Q1022
04:00
V
18 °C 10 km+ - 350°   350° 4 kt METAR LFMU 210200Z AUTO 35004KT CAVOK 18/16 Q1022
03:30
V
18 °C 10 km+ - 350°   350° 5 kt METAR LFMU 210130Z AUTO 35005KT CAVOK 18/16 Q1022
03:00
V
18 °C 10 km+ - 360°   360° 5 kt METAR LFMU 210100Z AUTO 36005KT CAVOK 18/16 Q1022
02:30
V
18 °C 10 km+ - 360°   360° 5 kt METAR LFMU 210030Z AUTO 36005KT CAVOK 18/16 Q1023
02:00
V
18 °C 10 km+ - 360°   360° 5 kt METAR LFMU 210000Z AUTO 36005KT CAVOK 18/17 Q1023
01:30
V
18 °C 10 km+ - 360°   360° 5 kt METAR LFMU 202330Z AUTO 36005KT CAVOK 18/17 Q1023
01:00
V
18 °C 10 km+ - 360°   360° 5 kt METAR LFMU 202300Z AUTO 36005KT CAVOK 18/17 Q1023
00:30
V
19 °C 10 km+ - 020°   020° 5 kt METAR LFMU 202230Z AUTO 02005KT CAVOK 19/17 Q1023
00:00
V
19 °C 10 km+ - 020°   020° 5 kt METAR LFMU 202200Z AUTO 02005KT CAVOK 19/17 Q1024

20 de mayo de 2022

Hora Código Tiempo Temp. Visibilidad Nubes Viento METAR/SPECI
23:30
V
19 °C 10 km+ - 030°   030° 6 kt METAR LFMU 202130Z AUTO 03006KT CAVOK 19/17 Q1024
23:00
V
20 °C 10 km+ - 020°   020° 6 kt METAR LFMU 202100Z AUTO 02006KT CAVOK 20/18 Q1024 TEMPO 3000 BR OVC004
22:30
V
20 °C 10 km+ - 040°   040° 6 kt METAR LFMU 202030Z AUTO 04006KT CAVOK 20/18 Q1023 TEMPO 3000 BR OVC004
22:00
V
20 °C 10 km+ - 070°   070° 7 kt METAR LFMU 202000Z AUTO 07007KT CAVOK 20/18 Q1023 TEMPO 3000 BR OVC004
21:30
V
21 °C 10 km+ - 070°   070° 7 kt METAR LFMU 201930Z AUTO 07007KT CAVOK 21/18 Q1023 TEMPO 3000 BR OVC004
21:00
V
21 °C 10 km+ - 080°   080° 8 kt METAR LFMU 201900Z AUTO 08008KT CAVOK 21/17 Q1023 TEMPO 3000 BR OVC004
20:30
V
22 °C 10 km+ - 100°   100° 11 kt METAR LFMU 201830Z AUTO 10011KT CAVOK 22/18 Q1023 TEMPO 3000 BR OVC004 BECMG 04005KT
20:00
V
22 °C 10 km+ - 080°   080° 10 kt METAR LFMU 201800Z AUTO 08010KT CAVOK 22/18 Q1023 NOSIG
19:30
V
23 °C 10 km+ - 090°   090° 13 kt METAR LFMU 201730Z AUTO 09013KT 9999 FEW022 23/17 Q1023 NOSIG
19:00
V
23 °C 10 km+ - 100°   100° 10 kt METAR LFMU 201700Z AUTO 10010KT 9999 FEW025 23/17 Q1023 BECMG 04005KT
18:30
V
24 °C 10 km+ - 100°   100° 11 kt METAR LFMU 201630Z AUTO 10011KT 070V150 CAVOK 24/16 Q1023 NOSIG
18:00
V
24 °C 10 km+ - 090°   090° 11 kt METAR LFMU 201600Z AUTO 09011KT CAVOK 24/17 Q1023 NOSIG
17:30
V
24 °C 10 km+ - 110°   110° 11 kt METAR LFMU 201530Z AUTO 11011KT 080V150 9999 FEW030 24/17 Q1024 NOSIG
17:00
V
25 °C 10 km+ - 110°   110° 13 kt METAR LFMU 201500Z AUTO 11013KT 080V150 CAVOK 25/16 Q1023 NOSIG
16:30
V
25 °C 10 km+ - 100°   100° 15 kt METAR LFMU 201430Z AUTO 10015KT 070V140 CAVOK 25/17 Q1023 NOSIG
16:00
V
25 °C 10 km+ - 100°   100° 12 kt METAR LFMU 201400Z AUTO 10012KT CAVOK 25/16 Q1024 NOSIG
15:30
V
25 °C 10 km+ - 100°   100° 12 kt METAR LFMU 201330Z AUTO 10012KT 070V140 CAVOK 25/16 Q1024 NOSIG
15:00
V
26 °C 10 km+ - 110°   110° 14 kt METAR LFMU 201300Z AUTO 11014KT CAVOK 26/16 Q1024 NOSIG
14:30
V
25 °C 10 km+ - 100°   100° 14 kt METAR LFMU 201230Z AUTO 10014KT 060V130 CAVOK 25/16 Q1024 NOSIG
14:00
V
26 °C 10 km+ - 110°   110° 12 kt METAR LFMU 201200Z AUTO 11012KT 080V150 CAVOK 26/16 Q1024 NOSIG
13:30
V
26 °C 10 km+ - 110°   110° 14 24 kt METAR LFMU 201130Z AUTO 11014G24KT 090V150 CAVOK 26/16 Q1024 NOSIG
13:00
V
26 °C 10 km+ - 110°   110° 14 kt METAR LFMU 201100Z AUTO 11014KT 080V160 CAVOK 26/16 Q1024 NOSIG
12:30
V
25 °C 10 km+ - 110°   110° 14 kt METAR LFMU 201030Z AUTO 11014KT CAVOK 25/16 Q1024 NOSIG
12:00
V
25 °C 10 km+ - 110°   110° 16 kt METAR LFMU 201000Z AUTO 11016KT CAVOK 25/17 Q1024 NOSIG
11:30
V
25 °C 10 km+ - 110°   110° 13 kt METAR LFMU 200930Z AUTO 11013KT CAVOK 25/17 Q1025 NOSIG
11:00
V
24 °C 10 km+ - 110°   110° 14 kt METAR LFMU 200900Z AUTO 11014KT CAVOK 24/16 Q1025 NOSIG
10:30
V
24 °C 10 km+ - 100°   100° 15 kt METAR LFMU 200830Z AUTO 10015KT CAVOK 24/17 Q1025 NOSIG
10:00
V
23 °C 10 km+ - 100°   100° 13 kt METAR LFMU 200800Z AUTO 10013KT CAVOK 23/17 Q1025 NOSIG
09:30
V
23 °C 10 km+ - 090°   090° 15 kt METAR LFMU 200730Z AUTO 09015KT 9999 FEW014 23/18 Q1025 NOSIG
09:00
M
22 °C 10 km+ 1.100 ft 080°   080° 12 kt METAR LFMU 200700Z AUTO 08012KT 9999 BKN011 22/19 Q1025 BECMG SCT010
Datos más antiguos

Descarga nuestra aplicación

Acceso fácil a todo el tiempo de la aviación en tu teléfono móvil y tableta.
Con muchas funciones no disponibles en el sitio web, como la compatibilidad sin conexión y una lista personal de aeropuertos.

Nosotros y terceros seguimos tu comportamiento en Internet en nuestro sitio web con cookies. Si continúas, asumimos que estás de acuerdo con nuestra política de cookies. Más información